Terminal Aerodrome Forecast
Issued by NWS

Home | Current Version | Previous Version | Text Only | Print | Product List | Glossary On
Versions: 1 2 3 4 5 6 7 8 9 10 11 12 13 14 15 16 17 18 19 20 21 22 23 24 25 26 27 28
391
FTUS41 KALY 111050 AAB
TAFPSF
TAF AMD
KPSF 111050Z 1111/1206 27010G20KT 2SM -SN BR OVC015
     FM111200 28012G22KT 5SM -SN BR SCT015 OVC040
      TEMPO 1112/1115 2SM -SN BR OVC015
     FM111500 29014G25KT P6SM VCSH BKN040
     FM120200 29010KT P6SM BKN040=

USA.gov is the U.S. government's official web portal to all federal, state and local government web resources and services.